METAR AND TAF INFORMATION

METAR FOR GCLP
ADDS - METARS form results

(2338 UTC 19 August 2022)
Data provider http://aviationweather.gov/metar/data/
 
METAR text: GCLP 192330Z 02019KT 9999 SCT020 23/19 Q1015 NOSIG
Conditions at: GCLP (LAS PALMAS/GANDO, ES) observed 2330 UTC 19 August 2022
Temperature: 23.0°C (73°F)
Dewpoint: 19.0°C (66°F) [RH = 78%]
Pressure (altimeter): 29.97 inches Hg (1015.0 mb)
Winds: from the NNE (20 degrees) at 22 MPH (19 knots; 9.8 m/s)
Visibility: 6 or more miles (10+ km)
Ceiling: at least 12,000 feet AGL
Clouds: scattered clouds at 2000 feet AGL
Weather: no significant weather observed at this time

METAR text: GCLP 192300Z 36021KT 9999 FEW020 23/19 Q1015 NOSIG
Conditions at: GCLP (LAS PALMAS/GANDO, ES) observed 2300 UTC 19 August 2022
Temperature: 23.0°C (73°F)
Dewpoint: 19.0°C (66°F) [RH = 78%]
Pressure (altimeter): 29.97 inches Hg (1015.0 mb)
Winds: from the N (360 degrees) at 24 MPH (21 knots; 10.8 m/s)
Visibility: 6 or more miles (10+ km)
Ceiling: at least 12,000 feet AGL
Clouds: few clouds at 2000 feet AGL
Weather: no significant weather observed at this time

Forecast for: GCLP (LAS PALMAS/GANDO, ES)
Text: TAF GCLP 192000Z 1921/2021 01019KT 9999 FEW020 TX30/2014Z TN22/2006Z
Forecast period: 2100 UTC 19 August 2022 to 2100 UTC 20 August 2022
Forecast type: FROM: standard forecast or significant change
Winds: from the N (10 degrees) at 22 MPH (19 knots; 9.8 m/s)
Visibility: 6 or more miles (10+ km)
Ceiling: at least 12,000 feet AGL
Clouds: few clouds at 2000 feet AGL
Weather: no significant weather forecast for this period

 

AIRPORT MAP

 

RUNWAY INFORMATION

Runway 03L Runway length 10171 ft Runway width 148 ft
Runway elevation 78 ft Runway displaced threshold 0 ft Runway heading 22
Runway 21R Runway length 10171 ft Runway width 148 ft
Runway elevation 33 ft Runway displaced threshold 0 ft Runway heading 202
Runway 03R Runway length 10171 ft Runway width 148 ft
Runway elevation 69 ft Runway displaced threshold 0 ft Runway heading 22
Runway 21L Runway length 10171 ft Runway width 148 ft
Runway elevation 27 ft Runway displaced threshold 0 ft Runway heading 202

 

AIRPORT FREQUENCIES

Type APP Name APP Frequency 120.9 MHZ
Type ATIS Name ATIS Frequency 118.6 MHZ
Type GND Name GND Frequency 121.7 MHZ
Type TWR Name TWR Frequency 118.3 MHZ

 

AIRPORT NEAR NAVIGATION AIDS

Type VOR-DME Name Gran Canaria Frequency 112900 KHZ
Type VOR-DME Name Gran Canaria Frequency 115000 KHZ
Type TACAN Name Gran Canaria Frequency 115600 KHZ
Type NDB Name Gran Canaria Frequency 365 KHZ